createdAt,value
2019-06-20T00:00:49.911Z,84.66
2019-06-20T00:03:18.290Z,84.71
2019-06-20T00:05:45.029Z,84.44
2019-06-20T00:08:11.851Z,84.60
2019-06-20T00:10:38.590Z,84.79
2019-06-20T00:13:05.307Z,84.79
2019-06-20T00:15:32.830Z,84.80
2019-06-20T00:17:59.561Z,85.07
2019-06-20T00:20:26.331Z,84.36
2019-06-20T00:22:53.345Z,84.54
2019-06-20T00:25:20.092Z,84.27
2019-06-20T00:27:47.099Z,84.79
2019-06-20T00:30:14.566Z,84.61
2019-06-20T00:32:41.231Z,84.68
2019-06-20T00:35:08.393Z,84.76
2019-06-20T00:37:35.035Z,85.08
2019-06-20T00:40:02.732Z,85.33
2019-06-20T00:42:29.642Z,85.53
2019-06-20T00:44:57.112Z,85.80
2019-06-20T00:47:23.851Z,85.84
2019-06-20T00:49:50.568Z,86.04
2019-06-20T00:52:17.258Z,85.89
2019-06-20T00:54:43.936Z,85.81
2019-06-20T00:57:10.758Z,86.09
2019-06-20T00:59:37.512Z,86.21
2019-06-20T01:02:04.253Z,86.21
2019-06-20T01:04:31.092Z,86.06
2019-06-20T01:06:57.952Z,86.30
2019-06-20T01:09:24.733Z,86.18
2019-06-20T01:11:51.530Z,86.06
2019-06-20T01:14:18.213Z,85.65
2019-06-20T01:16:44.970Z,85.59
2019-06-20T01:19:11.683Z,85.76
2019-06-20T01:21:38.508Z,85.44
2019-06-20T01:24:05.165Z,85.10
2019-06-20T01:26:31.834Z,85.23
2019-06-20T01:28:58.561Z,84.66
2019-06-20T01:31:25.307Z,85.00
2019-06-20T01:33:51.989Z,84.71
2019-06-20T01:36:18.762Z,84.71
2019-06-20T01:38:45.451Z,85.25
2019-06-20T01:41:12.170Z,85.10
2019-06-20T01:43:50.155Z,84.98
2019-06-20T01:46:07.533Z,85.15
2019-06-20T01:48:34.274Z,84.60
2019-06-20T01:51:01.036Z,84.73
2019-06-20T01:53:27.738Z,84.46
2019-06-20T01:55:54.737Z,84.84
2019-06-20T01:58:21.490Z,85.05
2019-06-20T02:00:49.271Z,84.71
2019-06-20T02:03:16.443Z,84.87
2019-06-20T02:05:43.793Z,84.45
2019-06-20T02:08:10.435Z,84.33
2019-06-20T02:10:37.175Z,84.72
2019-06-20T02:13:03.943Z,84.55
2019-06-20T02:15:30.928Z,84.89
2019-06-20T02:17:57.693Z,85.18
2019-06-20T02:20:33.237Z,84.42
2019-06-20T02:23:00.088Z,84.42
2019-06-20T02:25:26.842Z,85.21
2019-06-20T02:27:53.638Z,85.82
2019-06-20T02:30:21.472Z,86.41
2019-06-20T02:32:48.253Z,86.82
2019-06-20T02:35:15.132Z,87.27
2019-06-20T02:37:41.855Z,86.96
2019-06-20T02:40:09.087Z,86.35
2019-06-20T02:42:36.047Z,86.32
2019-06-20T02:45:04.644Z,86.32
2019-06-20T02:47:31.352Z,86.43
2019-06-20T02:49:58.111Z,86.07
2019-06-20T02:52:25.280Z,86.07
2019-06-20T02:54:51.977Z,86.21
2019-06-20T02:57:18.733Z,86.35
2019-06-20T02:59:45.382Z,86.35
2019-06-20T03:02:12.153Z,86.44
2019-06-20T03:04:38.991Z,86.98
2019-06-20T03:07:05.741Z,87.32
2019-06-20T03:09:32.614Z,87.74
2019-06-20T03:11:59.340Z,87.74
2019-06-20T03:14:26.114Z,87.90
2019-06-20T03:16:52.855Z,88.11
2019-06-20T03:19:19.491Z,88.05
2019-06-20T03:21:46.496Z,87.88
2019-06-20T03:24:13.232Z,87.83
2019-06-20T03:26:39.930Z,87.00
2019-06-20T03:29:06.675Z,85.89
2019-06-20T03:31:33.382Z,85.50
2019-06-20T03:34:00.084Z,85.50
2019-06-20T03:36:26.771Z,86.29
2019-06-20T03:38:53.456Z,86.29
2019-06-20T03:41:20.129Z,86.87
2019-06-20T03:43:46.952Z,86.92
2019-06-20T03:46:13.586Z,87.63
2019-06-20T03:48:40.290Z,87.10
2019-06-20T03:51:06.943Z,87.29
2019-06-20T03:53:33.642Z,87.29
2019-06-20T03:56:00.418Z,87.47
2019-06-20T03:58:27.109Z,87.72
2019-06-20T04:00:53.826Z,87.48
2019-06-20T04:03:20.692Z,87.29
2019-06-20T04:05:47.371Z,86.80
2019-06-20T04:08:14.033Z,87.56
2019-06-20T04:10:40.697Z,86.83
2019-06-20T04:13:07.510Z,87.06
2019-06-20T04:15:34.235Z,87.11
2019-06-20T04:18:00.913Z,87.07
2019-06-20T04:20:28.642Z,87.18
2019-06-20T04:22:55.351Z,86.96
2019-06-20T04:25:21.997Z,86.66
2019-06-20T04:27:48.847Z,85.76
2019-06-20T04:30:16.484Z,85.85
2019-06-20T04:32:44.350Z,85.60
2019-06-20T04:35:10.999Z,85.36
2019-06-20T04:37:37.667Z,86.19
2019-06-20T04:40:06.341Z,85.58
2019-06-20T04:42:33.277Z,85.76
2019-06-20T04:45:01.819Z,86.30
2019-06-20T04:47:28.634Z,85.11
2019-06-20T04:49:55.350Z,85.26
2019-06-20T04:52:22.059Z,85.13
2019-06-20T04:54:48.735Z,84.19
2019-06-20T04:57:15.441Z,84.47
2019-06-20T04:59:42.127Z,82.79
2019-06-20T05:02:08.862Z,81.08
2019-06-20T05:04:35.556Z,77.87
2019-06-20T05:07:08.722Z,75.58
2019-06-20T05:09:35.366Z,74.82
2019-06-20T05:12:02.085Z,74.46
2019-06-20T05:14:29.765Z,73.60
2019-06-20T05:16:56.725Z,71.16
2019-06-20T05:19:23.420Z,72.47
2019-06-20T05:21:50.060Z,74.06
2019-06-20T05:24:16.937Z,75.12
2019-06-20T05:26:45.920Z,74.18
2019-06-20T05:29:12.567Z,74.65
2019-06-20T05:31:39.241Z,71.94
2019-06-20T05:34:05.901Z,72.37
2019-06-20T05:36:32.627Z,72.81
2019-06-20T05:38:59.407Z,73.57
2019-06-20T05:41:27.191Z,72.52
2019-06-20T05:43:53.904Z,72.25
2019-06-20T05:46:20.705Z,72.02
2019-06-20T05:48:47.374Z,71.03
2019-06-20T05:51:14.296Z,70.62
2019-06-20T05:56:08.720Z,74.72
2019-06-20T05:58:35.552Z,73.26
2019-06-20T06:01:02.231Z,72.84
2019-06-20T06:03:28.911Z,71.29
2019-06-20T06:05:55.772Z,71.42
2019-06-20T06:08:22.553Z,71.75
2019-06-20T06:10:49.332Z,72.14
2019-06-20T06:13:16.112Z,71.23
2019-06-20T06:15:42.831Z,71.01
2019-06-20T06:18:09.598Z,70.34
2019-06-20T18:20:08.207Z,71.93
2019-06-20T18:22:36.146Z,70.61
2019-06-20T18:25:05.614Z,70.02
2019-06-20T18:27:32.346Z,71.10
2019-06-20T18:29:59.106Z,72.88
2019-06-20T18:32:25.928Z,72.87
2019-06-20T18:35:01.735Z,71.66
2019-06-20T18:37:31.092Z,72.31
2019-06-20T18:39:49.859Z,73.00
2019-06-20T18:42:16.611Z,73.43
2019-06-20T18:44:43.344Z,73.36
2019-06-20T18:47:09.991Z,74.21
2019-06-20T18:49:36.813Z,75.19
2019-06-20T18:52:03.686Z,74.71
2019-06-20T18:54:30.344Z,75.42
2019-06-20T18:56:57.192Z,76.05
2019-06-20T18:59:23.893Z,76.75
2019-06-20T19:01:50.659Z,76.57
2019-06-20T19:04:17.281Z,76.42
2019-06-20T19:06:43.998Z,76.41
2019-06-20T19:09:10.705Z,76.47
2019-06-20T19:11:37.813Z,76.71
2019-06-20T19:14:04.593Z,76.94
2019-06-20T19:16:31.249Z,77.34
2019-06-20T19:18:57.987Z,77.48
2019-06-20T19:21:24.686Z,78.22
2019-06-20T19:23:55.204Z,77.82
2019-06-20T19:26:20.467Z,78.28
2019-06-20T19:28:47.178Z,77.79
2019-06-20T19:31:13.978Z,78.64
2019-06-20T19:33:40.647Z,78.27
2019-06-20T19:36:07.324Z,77.99
2019-06-20T19:38:34.114Z,78.41
2019-06-20T19:41:00.855Z,79.62
2019-06-20T19:43:27.556Z,79.46
2019-06-20T19:45:54.291Z,79.74
2019-06-20T19:48:20.960Z,79.14
2019-06-20T19:50:47.924Z,79.36
2019-06-20T19:53:14.898Z,79.69
2019-06-20T19:55:42.038Z,80.10
2019-06-20T19:58:08.686Z,80.15
2019-06-20T20:00:35.614Z,79.99
2019-06-20T20:03:02.594Z,79.94
2019-06-20T20:05:29.441Z,80.45
2019-06-20T20:07:56.439Z,80.33
2019-06-20T20:10:32.834Z,80.52
2019-06-20T20:12:59.516Z,79.51
2019-06-20T20:15:26.188Z,79.36
2019-06-20T20:17:52.862Z,80.18
2019-06-20T20:20:19.799Z,79.06
2019-06-20T20:22:46.485Z,79.31
2019-06-20T20:25:13.378Z,79.43
2019-06-20T20:27:40.193Z,79.24
2019-06-20T20:30:09.195Z,79.15
2019-06-20T20:32:35.864Z,78.68
2019-06-20T20:35:03.055Z,78.65
2019-06-20T20:37:29.691Z,78.23
2019-06-20T20:39:56.342Z,79.71
2019-06-20T20:42:23.030Z,78.55
2019-06-20T20:44:49.764Z,79.41
2019-06-20T20:47:16.431Z,79.49
2019-06-20T20:49:43.117Z,78.88
2019-06-20T20:52:09.765Z,79.00
2019-06-20T20:54:36.507Z,79.11
2019-06-20T20:57:03.513Z,79.94
2019-06-20T20:59:30.431Z,79.72
2019-06-20T21:01:57.112Z,79.73
2019-06-20T21:04:23.991Z,79.80
2019-06-20T21:06:50.626Z,78.79
2019-06-20T21:09:17.271Z,79.57
2019-06-20T21:11:43.908Z,79.48
2019-06-20T21:14:10.786Z,78.39
2019-06-20T21:16:37.433Z,79.85
2019-06-20T21:19:04.452Z,80.02
2019-06-20T21:21:31.098Z,79.16
2019-06-20T21:23:57.853Z,78.76
2019-06-20T21:26:24.679Z,78.97
2019-06-20T21:28:51.515Z,79.85
2019-06-20T21:31:18.180Z,79.05
2019-06-20T21:33:44.986Z,79.59
2019-06-20T21:36:11.770Z,79.25
2019-06-20T21:38:38.488Z,79.30
2019-06-20T21:41:05.148Z,80.70
2019-06-20T21:43:31.910Z,78.97
2019-06-20T21:45:58.794Z,79.95
2019-06-20T21:48:25.471Z,79.71
2019-06-20T21:50:52.212Z,79.91
2019-06-20T21:53:18.960Z,79.35
2019-06-20T21:55:45.709Z,79.91
2019-06-20T21:58:12.498Z,79.78
2019-06-20T22:00:45.976Z,77.32
2019-06-20T22:03:13.696Z,78.36
2019-06-20T22:05:40.465Z,79.18
2019-06-20T22:08:07.536Z,77.66
2019-06-20T22:10:34.369Z,77.07
2019-06-20T22:13:01.107Z,76.48
2019-06-20T22:15:28.050Z,78.13
2019-06-20T22:17:54.902Z,78.92
2019-06-20T22:20:21.679Z,78.80
2019-06-20T22:22:48.376Z,78.76
2019-06-20T22:25:15.769Z,79.55
2019-06-20T22:27:42.488Z,79.31
2019-06-20T22:30:12.740Z,79.45
2019-06-20T22:32:39.472Z,79.51
2019-06-20T22:35:07.126Z,79.28
2019-06-20T22:37:33.833Z,79.54
2019-06-20T22:40:00.572Z,79.14
2019-06-20T22:42:27.342Z,79.58
2019-06-20T22:44:54.001Z,80.09
2019-06-20T22:47:21.665Z,79.78
2019-06-20T22:49:48.350Z,79.32
2019-06-20T22:52:15.156Z,79.34
2019-06-20T22:54:41.906Z,79.38
2019-06-20T22:57:08.672Z,80.05
2019-06-20T22:59:35.348Z,80.36
2019-06-20T23:02:02.241Z,80.73
2019-06-20T23:04:29.037Z,81.06
2019-06-20T23:06:57.028Z,81.25
2019-06-20T23:09:27.141Z,81.11
2019-06-20T23:11:52.711Z,81.84
2019-06-20T23:14:19.366Z,81.75
2019-06-20T23:16:46.052Z,81.46
2019-06-20T23:19:12.726Z,80.93
2019-06-20T23:21:39.471Z,81.08
2019-06-20T23:24:06.218Z,81.22
2019-06-20T23:26:32.922Z,81.35
2019-06-20T23:29:18.402Z,81.82
2019-06-20T23:31:45.192Z,81.86
2019-06-20T23:34:12.970Z,82.31
2019-06-20T23:36:39.631Z,81.63
2019-06-20T23:39:06.388Z,81.60
2019-06-20T23:41:33.076Z,82.20
2019-06-20T23:43:59.748Z,82.47
2019-06-20T23:46:26.432Z,82.60
2019-06-20T23:48:53.173Z,82.76
2019-06-20T23:51:25.537Z,82.92
2019-06-20T23:53:50.570Z,83.02
2019-06-20T23:56:20.229Z,82.75
2019-06-20T23:58:46.903Z,82.95
